Cancún International Airport

MMUN · Quintana Roo, Mexico

METAR history MMUN · Cancún International Airport

Below you see METARs of the last few days. Select a year to browse through older METARs, from the year 2007 onwards.

December 1, 2022

Time Code Weather Temp. Visibility Ceiling Wind METAR/SPECI
17:41
V
27 °C 7 mi - 080° 080° 5 kt METAR MMUN 012241Z 08005KT 7SM SCT015 27/23 A3005 RMK 8/100 DSNT CBS N
16:40
V
28 °C 7 mi - 110° 110° 7 kt METAR MMUN 012140Z 11007KT 7SM SCT015 28/23 A3004 RMK 8/100 CI
15:43
V
29 °C 7 mi - 080° 080° 9 kt METAR MMUN 012043Z 08009KT 7SM SCT015 29/23 A3005 RMK SLP177 57013 925 8/100
14:40
M
29 °C 7 mi 1,500 ft 070° 070° 9 kt METAR MMUN 011940Z 07009KT 7SM BKN015TCU 29/23 A3006 RMK 8/200 CI
13:49
M
30 °C 7 mi 1,500 ft 090° 090° 10 kt METAR MMUN 011849Z 09010KT 7SM BKN015TCU 30/23 A3007 RMK 8/200
12:47
M
29 °C 7 mi 1,500 ft 070° 070° 13 kt METAR MMUN 011747Z 07013KT 7SM BKN015TCU 29/23 A3009 RMK SLP190 57008 929 8/200
11:50
V
29 °C 7 mi - 070° 070° 12 kt METAR MMUN 011650Z 07012KT 7SM SCT015 29/24 A3011 RMK 8/100 SC
10:44
V
29 °C 7 mi - 100° 100° 6 kt METAR MMUN 011544Z 10006KT 7SM SCT015 29/24 A3011 RMK 8/100 SC
09:50
V
28 °C 7 mi - 070° 070° 8 kt METAR MMUN 011450Z 07008KT 7SM SCT015 28/24 A3011 RMK SLP198 52020 929 8/100
08:53
V
27 °C 7 mi - 090° 090° 5 kt METAR MMUN 011353Z 09005KT 7SM SCT015 27/23 A3010 RMK 8/100
07:46
V
26 °C 7 mi - 100° 100° 3 kt METAR MMUN 011246Z 10003KT 7SM SCT015 26/23 A3008 RMK 8/100
06:48
V
26 °C 7 mi - 080° 080° 7 kt METAR MMUN 011148Z 08007KT 7SM SCT015 26/23 A3006 RMK SLP178 52014 930 8/100 MDT CU
05:42
V
26 °C 7 mi - 070° 070° 5 kt METAR MMUN 011042Z 07005KT 7SM FEW015 26/23 A3003 RMK 8/500
04:49
V
25 °C 7 mi - 070° 070° 4 kt METAR MMUN 010949Z 07004KT 7SM SCT015 25/24 A3001 RMK 8/500
03:45
V
26 °C 7 mi - 090° 090° 5 kt METAR MMUN 010845Z 09005KT 7SM FEW015 26/24 A3001 RMK SLP164 57011 924 8/400
02:44
V
25 °C 7 mi - 080° 080° 3 kt METAR MMUN 010744Z 08003KT 7SM FEW015 25/23 A3002 RMK 8/100
01:44
V
24 °C 7 mi - Var 000° 0 kt METAR MMUN 010644Z 00000KT 7SM SCT015 24/23 A3003 RMK 8/100
00:52
V
23 °C 7 mi - 110° 110° 3 kt METAR MMUN 010552Z 11003KT 7SM SCT015TCU 23/23 A3005 RMK SLP175 57004 928 60025 8/200 AC RERA

November 30, 2022

Time Code Weather Temp. Visibility Ceiling Wind METAR/SPECI
23:45
V
26 °C 7 mi - Var 000° 0 kt METAR MMUN 010445Z 00000KT 7SM FEW015 26/23 A3006 RMK 8/500
22:43
V
26 °C 7 mi - 060° 060° 5 kt METAR MMUN 010343Z 06005KT 7SM FEW015 26/23 A3006 RMK 8/400
21:48
V
26 °C 7 mi - 080° 080° 4 kt METAR MMUN 010248Z 08004KT 7SM FEW015 26/23 A3006 RMK SLP179 52020 928 8/100
20:42
V
26 °C 7 mi - 070° 070° 4 kt METAR MMUN 010142Z 07004KT 7SM FEW015 26/23 A3004 RMK 8/400
19:42
V
27 °C 7 mi - 090° 090° 4 kt METAR MMUN 010042Z 09004KT 7SM FEW015 27/23 A3002 RMK 8/400
18:45
V
27 °C 7 mi - 090° 090° 3 kt METAR MMUN 302345Z 09003KT 7SM FEW015 27/23 A3000 RMK SLP159 52007 923 8/100
17:47
V
27 °C 7 mi - 100° 100° 4 kt METAR MMUN 302247Z 10004KT 7SM FEW015 27/23 A2998 RMK 8/100 MDT CU CI NW
16:50
V
28 °C 7 mi - 100° 100° 4 kt METAR MMUN 302150Z 10004KT 7SM SCT015TCU 28/24 A2998 RMK 8/200 PCPN NW
15:42
V
29 °C 7 mi - 100° 100° 4 kt METAR MMUN 302042Z 10004KT 7SM SCT015TCU 29/24 A2998 RMK SLP152 57009 920 8/200
14:42
V
30 °C 7 mi - 110° 110° 6 kt METAR MMUN 301942Z 11006KT 7SM SCT015 30/23 A2998 RMK 8/100
13:43
V
30 °C 7 mi - 130° 130° 9 kt METAR MMUN 301843Z 13009KT 7SM SCT015 30/23 A2998 RMK 8/100 MDT CU
12:41
V
29 °C 7 mi - 120° 120° 8 kt METAR MMUN 301741Z 12008KT 7SM SCT015 29/22 A3000 RMK SLP161 57008 914 8/100 MDT CU
11:41
V
30 °C 7 mi - 120° 120° 8 kt METAR MMUN 301641Z 12008KT 7SM SCT015 30/23 A3002 RMK 8/100
10:49
V
29 °C 7 mi - 120° 120° 8 kt METAR MMUN 301549Z 12008KT 7SM SCT015 29/23 A3003 RMK 8/100
09:48
V
29 °C 7 mi - 120° 120° 11 kt METAR MMUN 301448Z 12011KT 7SM SCT015 29/23 A3003 RMK SLP169 52021 908 8/100
08:47
V
28 °C 7 mi - 120° 120° 5 kt METAR MMUN 301347Z 12005KT 7SM SCT015 28/23 A3001 RMK 8/100
07:46
V
27 °C 7 mi - 110° 110° 5 kt METAR MMUN 301246Z 11005KT 7SM SCT015 27/23 A3000 RMK 8/100
06:45
V
26 °C 7 mi - 120° 120° 5 kt METAR MMUN 301145Z 12005KT 7SM SCT015 26/23 A2998 RMK SLP148 52008 903 8/100 MDT CU
05:47
V
26 °C 7 mi - 120° 120° 5 kt METAR MMUN 301047Z 12005KT 7SM SCT015 26/22 A2996 RMK 8/100
04:48
V
26 °C 7 mi - 120° 120° 5 kt METAR MMUN 300948Z 12005KT 7SM SCT015 26/23 A2995 RMK 8/100
03:48
V
26 °C 7 mi - 120° 120° 5 kt METAR MMUN 300848Z 12005KT 7SM SCT015 26/23 A2995 RMK SLP140 57007 900 8/100
02:43
V
26 °C 7 mi - 140° 140° 5 kt METAR MMUN 300743Z 14005KT 7SM SCT015 26/23 A2996 RMK 8/100
01:45
V
26 °C 7 mi - 140° 140° 5 kt METAR MMUN 300645Z 14005KT 7SM SCT015 26/23 A2996 RMK 8/500
00:45
V
26 °C 7 mi - 120° 120° 5 kt METAR MMUN 300545Z 12005KT 7SM SCT015 26/23 A2998 RMK SLP147 57004 956 8/500

November 29, 2022

Time Code Weather Temp. Visibility Ceiling Wind METAR/SPECI
23:46
V
26 °C 7 mi - 100° 100° 5 kt METAR MMUN 300446Z 10005KT 7SM FEW015 26/23 A2998 RMK 8/500
22:47
V
27 °C 7 mi - 110° 110° 5 kt METAR MMUN 300347Z 11005KT 7SM FEW015 27/23 A2999 RMK 8/500
21:46
V
27 °C 7 mi - 120° 120° 5 kt METAR MMUN 300246Z 12005KT 7SM FEW015 27/23 A2997 RMK SLP151 52015 954 8/400
20:41
V
27 °C 7 mi - 120° 120° 5 kt METAR MMUN 300141Z 12005KT 7SM FEW015 27/23 A2996 RMK 8/400
19:48
V
27 °C 7 mi - 130° 130° 6 kt METAR MMUN 300048Z 13006KT 7SM FEW015 27/23 A2995 RMK 8/400
18:44
V
27 °C 7 mi - 120° 120° 6 kt METAR MMUN 292344Z 12006KT 7SM SCT015 27/23 A2993 RMK SLP136 52004 956 8/100
17:41
V
28 °C 7 mi - 130° 130° 8 kt METAR MMUN 292241Z 13008KT 7SM SCT015 28/23 A2993 RMK 8/100 MDT CU
16:45
V
29 °C 7 mi - 120° 120° 9 kt METAR MMUN 292145Z 12009KT 7SM SCT015TCU 29/23 A2992 RMK 8/200
15:49
V
28 °C 7 mi - 120° 120° 10 kt METAR MMUN 292049Z 12010KT 7SM SCT015 28/22 A2992 RMK SLP132 57015 953 8/100 MDT CU
14:46
V
29 °C 7 mi - 130° 130° 8 kt METAR MMUN 291946Z 13008KT 7SM SCT015 29/22 A2993 RMK 8/100 MDT CU
13:42
V
30 °C 7 mi - 140° 140° 10 kt METAR MMUN 291842Z 14010KT 7SM SCT015 30/22 A2994 RMK 8/100
12:51
V
30 °C 7 mi - 160° 160° 10 kt METAR MMUN 291751Z 16010KT 7SM SCT015 30/22 A2996 RMK SLP147 57014 956 8/100
11:45
V
29 °C 7 mi - 130° 130° 11 kt METAR MMUN 291645Z 13011KT 7SM SCT015 29/22 A2999 RMK 8/100 CI
10:49
V
29 °C 7 mi - 150° 150° 11 kt METAR MMUN 291549Z 15011KT 7SM SCT015 29/22 A3000 RMK 8/100 CI
09:43
V
29 °C 7 mi - 140° 140° 7 kt METAR MMUN 291443Z 14007KT 7SM FEW015 SCT250 29/22 A3000 RMK SLP161 52016 951 8/102
08:49
V
28 °C 7 mi - 120° 120° 9 kt METAR MMUN 291349Z 12009KT 7SM FEW015 SCT250 28/22 A2999 RMK 8/102
07:48
V
27 °C 7 mi - 120° 120° 5 kt METAR MMUN 291248Z 12005KT 7SM SCT015 27/22 A2998 RMK 8/100
06:40
V
25 °C 7 mi - 120° 120° 7 kt METAR MMUN 291140Z 12007KT 7SM FEW015 SCT250 25/22 A2996 RMK SLP145 52005 952 8/108
05:44
V
26 °C 7 mi - 120° 120° 5 kt METAR MMUN 291044Z 12005KT 7SM FEW015 26/22 A2994 RMK 8/100
04:51
V
25 °C 7 mi - 120° 120° 4 kt METAR MMUN 290951Z 12004KT 7SM SCT015 25/22 A2993 RMK 8/100

We and third parties follow your internet behavior on our website with cookies. If you continue, we assume you agree with our cookie policy.